Time;durP1;ratioP1;P1;durP2;ratioP2;P2;SDS_P1;SDS_P2;PMS_P1;PMS_P2;Temp;Humidity;BMP_temperature;BMP_pressure;BME280_temperature;BME280_humidity;BME280_pressure;Samples;Min_cycle;Max_cycle;Signal;HPM_P1;HPM_P2
2021/04/15 00:01:08;;;;;;;3.50;3.20;;;2.10;79.30;;;;;;6274025;28;20123;-76
2021/04/15 00:04:11;;;;;;;4.07;3.10;;;2.00;79.50;;;;;;6273061;28;20124;-77
2021/04/15 00:07:12;;;;;;;5.87;3.40;;;1.90;79.90;;;;;;6269343;28;20095;-76
2021/04/15 00:10:15;;;;;;;5.93;3.97;;;1.90;80.00;;;;;;6276429;28;20099;-77
2021/04/15 00:13:19;;;;;;;2.77;2.57;;;1.70;80.60;;;;;;6276150;28;20076;-78
2021/04/15 00:16:20;;;;;;;5.13;3.73;;;1.70;81.00;;;;;;6274059;28;20144;-76
2021/04/15 00:19:23;;;;;;;4.80;4.40;;;1.60;81.30;;;;;;6274726;28;20107;-78
2021/04/15 00:22:24;;;;;;;3.93;3.47;;;1.50;81.50;;;;;;6276236;28;20143;-80
2021/04/15 00:25:26;;;;;;;8.30;3.57;;;1.50;81.60;;;;;;6274227;28;20049;-76
2021/04/15 00:28:28;;;;;;;3.47;3.17;;;1.40;82.30;;;;;;6274672;28;20044;-79
2021/04/15 00:31:29;;;;;;;3.73;3.43;;;1.40;82.20;;;;;;6279348;28;20052;-79
2021/04/15 00:34:32;;;;;;;6.37;4.77;;;1.50;82.30;;;;;;6276270;28;20134;-77
2021/04/15 00:37:33;;;;;;;4.00;3.33;;;1.50;82.50;;;;;;6277702;28;20069;-79
2021/04/15 00:40:36;;;;;;;5.47;4.77;;;1.40;82.40;;;;;;6279289;28;20041;-78
2021/04/15 00:43:41;;;;;;;5.90;4.30;;;1.40;82.60;;;;;;6276634;28;20139;-79
2021/04/15 00:46:52;;;;;;;5.30;3.63;;;1.20;82.90;;;;;;6275541;28;20135;-77
2021/04/15 00:49:57;;;;;;;4.63;4.17;;;1.10;83.50;;;;;;6273319;28;20041;-77
2021/04/15 00:53:03;;;;;;;3.90;3.50;;;1.10;83.90;;;;;;6276733;28;20449;-77
2021/04/15 00:56:06;;;;;;;3.37;3.17;;;1.00;84.20;;;;;;6277415;28;20123;-78
2021/04/15 00:59:08;;;;;;;5.17;3.73;;;1.00;84.30;;;;;;6276668;28;20076;-77
2021/04/15 01:02:14;;;;;;;7.70;4.07;;;1.00;84.60;;;;;;6276512;28;20554;-77
2021/04/15 01:05:22;;;;;;;5.73;4.40;;;1.00;85.00;;;;;;6283318;28;20079;-76
2021/04/15 01:08:24;;;;;;;4.22;3.58;;;1.10;85.30;;;;;;6272428;28;20056;-77
2021/04/15 01:11:42;;;;;;;4.67;3.77;;;1.00;85.20;;;;;;6271900;28;20517;-77
2021/04/15 01:15:08;;;;;;;4.07;3.63;;;0.90;85.50;;;;;;6273200;28;20060;-77
2021/04/15 01:18:17;;;;;;;6.70;3.93;;;0.90;86.10;;;;;;6271899;28;20051;-77
2021/04/15 01:21:59;;;;;;;5.27;3.60;;;0.90;86.50;;;;;;6272231;28;20060;-77
2021/04/15 01:25:10;;;;;;;5.57;5.17;;;0.80;86.70;;;;;;6243435;28;20091;-76
2021/04/15 01:28:27;;;;;;;4.27;3.87;;;0.80;87.20;;;;;;6271537;28;20499;-76
2021/04/15 01:31:44;;;;;;;6.40;4.67;;;0.70;87.40;;;;;;6272171;28;20045;-76
2021/04/15 01:34:51;;;;;;;4.17;3.73;;;0.70;87.70;;;;;;6272146;28;20564;-76
2021/04/15 01:37:56;;;;;;;4.47;3.80;;;0.60;88.10;;;;;;6272072;28;20064;-76
2021/04/15 01:41:00;;;;;;;6.90;4.73;;;0.60;88.50;;;;;;6271769;28;20120;-77
2021/04/15 01:44:07;;;;;;;8.30;5.37;;;0.50;88.90;;;;;;6272259;28;20418;-77
2021/04/15 01:47:14;;;;;;;10.20;5.03;;;0.50;89.70;;;;;;6273086;28;20478;-76
2021/04/15 01:50:18;;;;;;;4.80;4.23;;;0.50;89.70;;;;;;6271735;28;20152;-77
2021/04/15 01:53:25;;;;;;;4.90;4.00;;;0.50;90.10;;;;;;6272307;28;20132;-77
2021/04/15 01:56:32;;;;;;;8.33;5.17;;;0.50;90.00;;;;;;6271983;28;20571;-76
2021/04/15 01:59:40;;;;;;;6.10;4.20;;;0.40;90.20;;;;;;6272781;28;20057;-76
2021/04/15 02:02:44;;;;;;;5.30;4.40;;;0.30;90.30;;;;;;6273288;28;20537;-77
2021/04/15 02:05:48;;;;;;;7.60;3.80;;;0.30;90.40;;;;;;6272545;28;20571;-76
2021/04/15 02:08:54;;;;;;;4.53;4.07;;;0.20;90.80;;;;;;6275772;28;20068;-76
2021/04/15 02:12:01;;;;;;;5.77;4.97;;;0.20;90.90;;;;;;6289870;28;20036;-77
2021/04/15 02:15:08;;;;;;;8.15;4.90;;;0.10;91.00;;;;;;6303179;28;20032;-77
2021/04/15 02:18:12;;;;;;;5.90;5.35;;;0.00;91.20;;;;;;6303228;28;20075;-78
2021/04/15 02:21:23;;;;;;;6.47;5.43;;;0.00;91.40;;;;;;6305882;28;20029;-78
2021/04/15 02:24:32;;;;;;;11.23;4.73;;;0.00;91.70;;;;;;6306890;28;20059;-77
2021/04/15 02:27:39;;;;;;;5.27;4.73;;;0.00;91.70;;;;;;6305864;28;20069;-78
2021/04/15 02:30:44;;;;;;;6.57;5.30;;;-0.10;91.90;;;;;;6305177;28;20048;-77
2021/04/15 02:33:50;;;;;;;5.37;4.87;;;-0.10;92.10;;;;;;6282253;28;20045;-76
2021/04/15 02:36:57;;;;;;;9.57;4.50;;;-0.10;92.40;;;;;;6276205;28;20095;-76
2021/04/15 02:40:04;;;;;;;5.00;4.37;;;-0.10;92.60;;;;;;6275956;28;20124;-75
2021/04/15 02:43:11;;;;;;;9.00;5.68;;;0.00;92.80;;;;;;6276047;28;20133;-76
2021/04/15 02:46:17;;;;;;;8.77;5.63;;;-0.10;92.60;;;;;;6275344;28;20423;-76
2021/04/15 02:49:19;;;;;;;7.67;5.00;;;-0.20;92.80;;;;;;6275113;28;20479;-77
2021/04/15 02:52:23;;;;;;;9.90;6.37;;;-0.30;93.10;;;;;;6275172;28;20068;-78
2021/04/15 02:55:29;;;;;;;6.47;4.93;;;-0.30;93.20;;;;;;6275331;28;20105;-78
2021/04/15 02:58:36;;;;;;;4.63;4.23;;;-0.30;93.30;;;;;;6276366;28;20132;-78
2021/04/15 03:01:44;;;;;;;10.60;5.07;;;-0.30;93.50;;;;;;6276675;28;20127;-78
2021/04/15 03:04:50;;;;;;;10.87;6.07;;;-0.30;93.70;;;;;;6276265;28;20041;-76
2021/04/15 03:07:55;;;;;;;5.30;4.80;;;-0.30;93.70;;;;;;6275492;28;20083;-77
2021/04/15 03:11:02;;;;;;;5.80;4.80;;;-0.30;93.80;;;;;;6275439;28;20091;-76
2021/04/15 03:14:08;;;;;;;4.60;4.17;;;-0.30;93.90;;;;;;6274604;28;20072;-77
2021/04/15 03:17:12;;;;;;;4.93;4.43;;;-0.40;93.90;;;;;;6274974;28;20056;-76
2021/04/15 03:20:17;;;;;;;6.80;5.23;;;-0.40;94.10;;;;;;6274797;28;20045;-76
2021/04/15 03:23:33;;;;;;;5.63;5.13;;;-0.50;94.20;;;;;;6275918;28;20051;-77
2021/04/15 03:26:43;;;;;;;6.73;5.00;;;-0.50;94.10;;;;;;6272597;28;20418;-78
2021/04/15 03:29:52;;;;;;;6.40;5.47;;;-0.60;94.10;;;;;;6273655;28;20051;-77
2021/04/15 03:33:02;;;;;;;9.77;5.17;;;-0.70;94.40;;;;;;6273716;28;20110;-77
2021/04/15 03:36:11;;;;;;;8.97;7.00;;;-0.70;94.70;;;;;;6273714;28;20064;-77
2021/04/15 03:39:18;;;;;;;12.87;9.00;;;-0.70;94.70;;;;;;6274503;28;20119;-76
2021/04/15 03:42:25;;;;;;;7.77;6.10;;;-0.70;94.90;;;;;;6273584;28;20045;-76
2021/04/15 03:45:31;;;;;;;8.90;5.87;;;-0.80;94.90;;;;;;6273294;28;20136;-76
2021/04/15 03:48:39;;;;;;;5.53;5.03;;;-0.80;95.40;;;;;;6273943;28;20076;-76
2021/04/15 03:51:42;;;;;;;;;;;-0.80;95.40;;;;;;6273878;28;20041;-78
2021/04/15 03:54:48;;;;;;;5.73;5.20;;;-0.80;95.30;;;;;;6274789;28;20334;-77
2021/04/15 03:57:53;;;;;;;6.53;5.30;;;-0.80;95.40;;;;;;6273444;28;20136;-77
2021/04/15 04:01:01;;;;;;;9.60;6.40;;;-0.90;95.50;;;;;;6272525;28;20493;-77
2021/04/15 04:04:05;;;;;;;;;;;-0.90;95.70;;;;;;6273732;28;20068;-76
2021/04/15 04:07:12;;;;;;;10.20;6.57;;;-1.00;95.70;;;;;;6273512;28;19976;-77
2021/04/15 04:10:18;;;;;;;8.17;7.37;;;-1.00;95.80;;;;;;6274368;28;20045;-77
2021/04/15 04:13:27;;;;;;;9.77;8.67;;;-1.00;96.00;;;;;;6272495;28;20472;-76
2021/04/15 04:16:32;;;;;;;9.70;8.73;;;-1.00;96.10;;;;;;6272799;28;20045;-76
2021/04/15 04:19:42;;;;;;;8.20;7.30;;;-1.00;96.10;;;;;;6272849;28;20484;-77
2021/04/15 04:22:50;;;;;;;7.87;7.03;;;-0.90;96.20;;;;;;6273374;28;20503;-78
2021/04/15 04:25:59;;;;;;;8.38;6.40;;;-1.00;96.30;;;;;;6273360;28;20055;-76
2021/04/15 04:29:18;;;;;;;8.13;6.67;;;-1.00;96.30;;;;;;6273037;28;20044;-76
2021/04/15 04:32:22;;;;;;;10.63;6.60;;;-0.90;96.40;;;;;;6272570;28;20055;-77
2021/04/15 04:35:29;;;;;;;17.27;8.83;;;-1.00;96.20;;;;;;6272299;28;20088;-77
2021/04/15 04:38:31;;;;;;;22.23;7.95;;;-1.00;96.40;;;;;;6272880;28;20083;-77
2021/04/15 04:41:43;;;;;;;13.83;9.40;;;-1.00;96.60;;;;;;6272828;28;20071;-77
2021/04/15 04:44:47;;;;;;;11.17;9.97;;;-1.10;96.40;;;;;;6272280;28;20422;-77
2021/04/15 04:47:55;;;;;;;11.40;9.60;;;-1.10;96.40;;;;;;6272161;28;20072;-77
2021/04/15 04:51:04;;;;;;;19.00;10.85;;;-1.10;96.60;;;;;;6272569;28;20089;-77
2021/04/15 04:54:06;;;;;;;14.90;11.60;;;-1.00;96.90;;;;;;6272464;28;20132;-77
2021/04/15 04:57:14;;;;;;;17.80;11.87;;;-0.60;99.90;;;;;;6274380;28;20127;-78
2021/04/15 05:00:19;;;;;;;15.90;9.43;;;0.10;99.30;;;;;;6274092;28;20099;-78
2021/04/15 05:03:22;;;;;;;8.63;7.50;;;0.40;98.50;;;;;;6275741;28;20049;-77
2021/04/15 05:06:27;;;;;;;11.63;7.53;;;0.30;96.70;;;;;;6275026;28;20076;-77
2021/04/15 05:09:33;;;;;;;15.27;9.97;;;0.10;96.40;;;;;;6274534;28;20143;-77
2021/04/15 05:12:36;;;;;;;12.17;9.90;;;0.00;96.40;;;;;;6273171;28;20128;-78
2021/04/15 05:15:38;;;;;;;11.23;8.97;;;0.00;96.20;;;;;;6272956;28;20135;-77
2021/04/15 05:18:40;;;;;;;9.90;8.90;;;0.00;96.30;;;;;;6272955;28;20055;-77
2021/04/15 05:21:43;;;;;;;17.20;11.00;;;0.20;96.90;;;;;;6272787;28;20506;-78
2021/04/15 05:24:49;;;;;;;12.60;11.27;;;0.30;96.60;;;;;;6272109;28;20056;-77
2021/04/15 05:27:52;;;;;;;14.03;10.10;;;0.50;96.40;;;;;;6272802;28;20041;-77
2021/04/15 05:30:55;;;;;;;11.70;8.73;;;0.70;96.30;;;;;;6279775;28;20076;-80
2021/04/15 05:33:59;;;;;;;16.23;10.83;;;0.90;96.00;;;;;;6271440;28;20049;-78
2021/04/15 05:37:05;;;;;;;11.93;10.37;;;1.10;95.50;;;;;;6248828;28;20052;-78
2021/04/15 05:40:07;;;;;;;110.27;48.70;;;1.40;95.00;;;;;;6249236;28;20124;-78
2021/04/15 05:43:27;;;;;;;43.23;22.80;;;1.70;94.20;;;;;;6250065;28;20120;-78
2021/04/15 05:46:37;;;;;;;19.27;11.73;;;2.00;93.60;;;;;;6249696;28;20064;-78
2021/04/15 05:49:43;;;;;;;12.20;10.20;;;2.20;92.70;;;;;;6248474;28;20054;-78
2021/04/15 05:52:52;;;;;;;11.20;10.03;;;2.50;92.10;;;;;;6248325;28;20480;-78
2021/04/15 05:55:58;;;;;;;12.30;10.83;;;2.80;91.40;;;;;;6253094;28;20277;-77
2021/04/15 05:59:07;;;;;;;9.93;7.67;;;3.00;90.80;;;;;;6253620;28;20080;-78
2021/04/15 06:02:36;;;;;;;9.20;7.37;;;3.20;90.00;;;;;;6252257;28;20559;-79
2021/04/15 06:05:43;;;;;;;13.07;9.30;;;3.30;89.00;;;;;;6257633;28;20126;-78
2021/04/15 06:08:49;;;;;;;17.58;9.93;;;3.40;88.80;;;;;;6259788;28;20447;-76
2021/04/15 06:12:01;;;;;;;9.87;8.37;;;3.60;87.90;;;;;;6276715;28;20519;-77
2021/04/15 06:15:08;;;;;;;8.10;7.03;;;4.00;86.90;;;;;;6276501;28;20578;-76
2021/04/15 06:18:21;;;;;;;7.83;7.03;;;4.20;85.00;;;;;;6275182;28;20463;-77
2021/04/15 06:21:27;;;;;;;8.32;7.45;;;4.50;83.70;;;;;;6275537;28;20069;-77
2021/04/15 06:24:30;;;;;;;12.40;7.55;;;4.80;81.70;;;;;;6276393;28;20060;-77
2021/04/15 06:27:32;;;;;;;12.48;8.30;;;5.00;80.40;;;;;;6275274;28;20195;-77
2021/04/15 06:30:38;;;;;;;7.05;6.18;;;5.00;78.10;;;;;;6275302;28;20135;-77
2021/04/15 06:33:41;;;;;;;8.57;6.93;;;5.00;78.10;;;;;;6275308;28;20127;-75
2021/04/15 06:36:50;;;;;;;7.15;5.95;;;5.30;78.30;;;;;;6265147;28;20124;-76
2021/04/15 06:39:59;;;;;;;8.38;6.47;;;5.60;76.70;;;;;;6274241;28;20588;-76
2021/04/15 06:43:11;;;;;;;6.07;5.55;;;5.80;75.10;;;;;;6275537;28;20132;-77
2021/04/15 06:46:32;;;;;;;7.78;6.95;;;6.00;73.90;;;;;;6275829;28;20124;-77
2021/04/15 06:49:56;;;;;;;7.85;5.40;;;6.30;72.60;;;;;;6275065;28;20060;-77
2021/04/15 06:53:30;;;;;;;9.00;6.88;;;6.20;71.10;;;;;;6246713;28;20123;-78
2021/04/15 06:56:42;;;;;;;9.93;6.95;;;6.20;71.10;;;;;;6260971;28;20128;-77
2021/04/15 06:59:54;;;;;;;8.13;5.88;;;6.40;70.40;;;;;;6274736;28;20130;-78
2021/04/15 07:03:09;;;;;;;7.85;5.65;;;6.50;69.50;;;;;;6275562;28;20483;-77
2021/04/15 07:06:13;;;;;;;6.88;5.68;;;6.70;68.70;;;;;;6274229;28;20077;-78
2021/04/15 07:09:56;;;;;;;7.15;5.97;;;6.90;67.80;;;;;;6274412;28;20527;-78
2021/04/15 07:13:25;;;;;;;7.07;5.10;;;7.20;67.30;;;;;;6275435;28;20040;-78
2021/04/15 07:16:51;;;;;;;5.50;4.97;;;7.50;66.20;;;;;;6276787;28;20049;-78
2021/04/15 07:20:28;;;;;;;7.60;4.63;;;7.70;65.10;;;;;;6274710;28;20037;-78
2021/04/15 07:24:02;;;;;;;8.48;4.53;;;7.90;63.60;;;;;;6276968;28;20072;-78
2021/04/15 07:27:30;;;;;;;6.70;5.07;;;8.00;62.90;;;;;;6277614;28;20084;-78
2021/04/15 07:31:28;;;;;;;26.98;24.85;;;8.10;62.10;;;;;;6276322;28;20056;-77
2021/04/15 07:34:51;;;;;;;8.50;6.47;;;8.40;61.70;;;;;;6277331;28;20485;-78
2021/04/15 07:38:25;;;;;;;5.55;5.05;;;8.60;60.70;;;;;;6263451;28;20554;-79
2021/04/15 07:41:40;;;;;;;5.57;3.65;;;8.80;59.80;;;;;;6255704;28;20073;-78
2021/04/15 07:44:44;;;;;;;6.35;4.20;;;9.00;58.90;;;;;;6253095;28;20132;-78
2021/04/15 07:48:27;;;;;;;4.13;3.72;;;9.00;58.20;;;;;;6254615;28;20053;-78
2021/04/15 07:51:44;;;;;;;4.90;4.05;;;8.80;58.30;;;;;;6253815;28;20772;-78
2021/04/15 07:55:13;;;;;;;3.90;3.50;;;8.50;58.20;;;;;;6254548;28;20059;-78
2021/04/15 07:58:55;;;;;;;3.22;2.97;;;8.20;59.00;;;;;;6252633;28;20073;-78
2021/04/15 08:02:40;;;;;;;4.95;4.43;;;8.30;59.30;;;;;;6223303;28;20455;-79
2021/04/15 08:05:51;;;;;;;5.18;3.47;;;8.40;59.40;;;;;;6183115;28;20081;-79
2021/04/15 08:09:12;;;;;;;6.43;3.58;;;8.50;58.50;;;;;;6250002;28;20069;-79
2021/04/15 08:12:34;;;;;;;5.70;3.78;;;8.60;58.20;;;;;;6253263;28;20469;-78
2021/04/15 08:15:49;;;;;;;6.32;4.57;;;8.50;57.80;;;;;;6245376;28;20487;-77
2021/04/15 08:19:01;;;;;;;6.25;3.35;;;8.80;58.40;;;;;;6248161;28;20180;-77
2021/04/15 08:22:14;;;;;;;4.55;3.90;;;8.90;57.00;;;;;;6248633;28;20128;-77
2021/04/15 08:25:22;;;;;;;4.70;4.20;;;9.10;57.30;;;;;;6244635;22;20196;-77
2021/04/15 08:28:27;;;;;;;;;;;9.50;56.00;;;;;;6224295;28;20486;-77
2021/04/15 08:31:46;;;;;;;5.97;3.42;;;9.80;55.50;;;;;;6223256;28;20012;-77
2021/04/15 08:35:00;;;;;;;4.15;3.85;;;9.90;54.50;;;;;;6223570;28;20081;-77
2021/04/15 08:38:14;;;;;;;6.30;4.07;;;9.90;53.70;;;;;;6216540;28;20046;-78
2021/04/15 08:41:28;;;;;;;4.60;4.18;;;9.90;54.10;;;;;;6198016;28;20118;-78
2021/04/15 08:44:46;;;;;;;4.28;3.13;;;10.10;53.60;;;;;;6198782;28;20054;-77
2021/04/15 08:47:58;;;;;;;6.30;3.15;;;10.20;53.40;;;;;;6198679;28;20419;-77
2021/04/15 08:51:09;;;;;;;5.15;3.42;;;10.50;51.90;;;;;;6198329;28;20052;-77
2021/04/15 08:54:43;;;;;;;4.50;3.88;;;10.60;51.60;;;;;;6196367;28;20050;-77
2021/04/15 08:57:59;;;;;;;4.43;3.20;;;10.70;52.20;;;;;;6188029;28;20050;-77
2021/04/15 09:01:12;;;;;;;4.45;3.72;;;11.30;50.60;;;;;;6197670;28;20129;-77
2021/04/15 09:04:17;;;;;;;4.88;3.97;;;11.40;48.70;;;;;;6197841;28;20070;-77
2021/04/15 09:07:23;;;;;;;3.95;3.20;;;11.20;49.70;;;;;;6198299;28;20496;-76
2021/04/15 09:10:30;;;;;;;7.07;4.35;;;11.00;49.70;;;;;;6197918;28;20512;-77
2021/04/15 09:13:38;;;;;;;5.40;2.90;;;11.00;50.00;;;;;;6197509;28;20073;-77
2021/04/15 09:16:42;;;;;;;4.78;2.90;;;11.50;49.70;;;;;;6197747;28;20679;-77
2021/04/15 09:19:57;;;;;;;4.25;3.42;;;11.70;47.00;;;;;;6196308;28;20412;-76
2021/04/15 09:23:31;;;;;;;7.22;4.00;;;11.70;48.80;;;;;;6197643;28;20128;-77
2021/04/15 09:26:51;;;;;;;3.47;2.85;;;12.10;47.30;;;;;;6198029;28;20061;-77
2021/04/15 09:30:27;;;;;;;5.93;3.17;;;12.30;47.00;;;;;;6199757;28;20130;-77
2021/04/15 09:33:46;;;;;;;3.90;2.95;;;12.00;44.70;;;;;;6201530;28;20050;-77
2021/04/15 09:37:03;;;;;;;5.70;3.47;;;11.70;45.90;;;;;;6203102;28;20054;-79
2021/04/15 09:40:08;;;;;;;5.57;3.40;;;12.00;45.70;;;;;;6226967;28;20431;-78
2021/04/15 09:43:20;;;;;;;4.35;3.00;;;12.00;45.10;;;;;;6227729;28;20066;-77
2021/04/15 09:46:30;;;;;;;3.72;2.90;;;11.40;45.50;;;;;;6226811;28;20129;-77
2021/04/15 09:49:48;;;;;;;4.28;2.28;;;10.90;46.30;;;;;;6226392;28;20081;-78
2021/04/15 09:53:06;;;;;;;3.15;2.58;;;10.70;46.90;;;;;;6226522;28;20480;-77
2021/04/15 09:56:42;;;;;;;4.97;2.77;;;10.60;47.20;;;;;;6226595;28;20113;-77
2021/04/15 10:00:02;;;;;;;7.20;2.33;;;10.60;48.00;;;;;;6199105;28;20230;-77
2021/04/15 10:03:17;;;;;;;3.88;2.00;;;11.20;46.80;;;;;;6227209;28;20473;-78
2021/04/15 10:06:24;;;;;;;3.70;2.97;;;11.80;42.20;;;;;;6227919;28;20053;-77
2021/04/15 10:09:43;;;;;;;4.23;3.50;;;12.00;46.30;;;;;;6226679;28;20046;-77
2021/04/15 10:12:57;;;;;;;5.22;3.92;;;12.60;45.50;;;;;;6228600;28;20297;-78
2021/04/15 10:16:06;;;;;;;3.40;3.10;;;13.30;44.70;;;;;;6228011;28;20048;-77
2021/04/15 10:19:46;;;;;;;4.30;3.13;;;13.90;43.40;;;;;;6229527;28;20050;-77
2021/04/15 10:23:02;;;;;;;4.20;2.95;;;14.40;42.40;;;;;;6213878;28;20133;-77
2021/04/15 10:26:18;;;;;;;3.42;2.97;;;14.90;40.70;;;;;;6226240;28;20076;-78
2021/04/15 10:29:46;;;;;;;5.97;3.67;;;15.30;39.20;;;;;;6226017;28;20046;-77
2021/04/15 10:33:23;;;;;;;5.20;3.03;;;15.60;38.30;;;;;;6225523;28;20053;-77
2021/04/15 10:36:54;;;;;;;4.18;2.88;;;15.60;37.90;;;;;;6225977;28;20421;-77
2021/04/15 10:40:29;;;;;;;5.15;3.20;;;15.60;37.50;;;;;;6212904;28;20077;-77
2021/04/15 10:44:13;;;;;;;9.65;4.38;;;15.70;37.30;;;;;;6201359;28;20054;-77
2021/04/15 10:47:34;;;;;;;8.90;3.65;;;15.80;37.10;;;;;;6183019;28;20078;-78
2021/04/15 10:50:46;;;;;;;3.35;2.33;;;15.60;37.40;;;;;;6202056;28;20066;-78
2021/04/15 10:53:51;;;;;;;3.78;1.92;;;15.10;37.50;;;;;;6202121;28;20051;-78
2021/04/15 10:56:56;;;;;;;5.30;3.17;;;14.90;37.00;;;;;;6201324;28;20096;-77
2021/04/15 11:00:21;;;;;;;3.92;2.97;;;15.00;37.70;;;;;;6201806;28;20038;-77
2021/04/15 11:03:24;;;;;;;4.85;2.63;;;15.20;37.90;;;;;;6203432;28;20455;-77
2021/04/15 11:06:45;;;;;;;4.82;2.75;;;14.90;37.40;;;;;;6203255;28;20086;-77
2021/04/15 11:09:47;;;;;;;4.43;2.13;;;14.60;38.10;;;;;;6201547;28;20133;-78
2021/04/15 11:13:00;;;;;;;3.83;2.00;;;14.50;36.40;;;;;;6201574;28;20050;-77
2021/04/15 11:16:03;;;;;;;2.53;1.70;;;14.00;35.30;;;;;;6200549;28;20101;-77
2021/04/15 11:19:07;;;;;;;2.67;2.03;;;14.00;35.30;;;;;;6200500;28;20054;-77
2021/04/15 11:22:18;;;;;;;3.88;2.90;;;14.10;34.50;;;;;;6201639;28;20073;-77
2021/04/15 11:25:23;;;;;;;4.88;2.72;;;13.90;33.70;;;;;;6200842;28;20524;-78
2021/04/15 11:28:33;;;;;;;3.13;1.77;;;14.00;34.60;;;;;;6200281;28;20054;-77
2021/04/15 11:31:38;;;;;;;4.05;2.28;;;14.80;36.10;;;;;;6200552;28;20086;-78
2021/04/15 11:34:39;;;;;;;8.35;2.72;;;;;;;;;;6201484;28;20065;-78
2021/04/15 11:37:43;;;;;;;3.67;3.08;;;13.50;39.10;;;;;;6201355;28;20073;-78
2021/04/15 11:40:47;;;;;;;3.85;3.20;;;13.30;41.00;;;;;;6211455;28;20117;-78
2021/04/15 11:44:01;;;;;;;3.90;3.47;;;13.10;50.50;;;;;;6202414;28;20090;-78
2021/04/15 11:47:08;;;;;;;8.35;3.22;;;12.80;42.60;;;;;;6201144;28;20085;-77
2021/04/15 11:50:15;;;;;;;5.30;3.53;;;12.80;43.60;;;;;;6200208;28;20056;-77
2021/04/15 11:53:39;;;;;;;2.85;2.55;;;13.30;57.00;;;;;;6200484;28;20074;-77
2021/04/15 11:56:42;;;;;;;3.80;2.88;;;13.20;42.30;;;;;;6201417;28;20129;-77
2021/04/15 12:00:01;;;;;;;3.58;3.10;;;13.10;41.00;;;;;;6202353;28;20125;-77
2021/04/15 12:03:15;;;;;;;4.10;2.60;;;13.10;39.90;;;;;;6203403;28;20049;-77
2021/04/15 12:06:16;;;;;;;4.78;2.55;;;13.40;40.90;;;;;;6202268;28;20530;-77
2021/04/15 12:09:21;;;;;;;3.35;2.35;;;13.70;38.80;;;;;;6201360;28;20133;-78
2021/04/15 12:12:31;;;;;;;4.78;3.03;;;13.80;39.10;;;;;;6201386;28;20482;-78
2021/04/15 12:15:37;;;;;;;4.35;2.60;;;14.10;39.30;;;;;;6200705;28;20458;-78
2021/04/15 12:18:42;;;;;;;5.00;2.30;;;14.40;39.00;;;;;;6200756;28;20137;-78
2021/04/15 12:21:48;;;;;;;4.22;2.78;;;14.70;38.30;;;;;;6201401;28;20129;-78
2021/04/15 12:24:53;;;;;;;3.90;2.53;;;14.80;36.90;;;;;;6232100;28;20049;-78
2021/04/15 12:28:18;;;;;;;6.88;2.42;;;14.80;38.70;;;;;;6249072;28;20072;-78
2021/04/15 12:31:25;;;;;;;4.82;2.05;;;14.90;36.10;;;;;;6249789;28;20107;-78
2021/04/15 12:35:06;;;;;;;3.35;2.03;;;13.90;34.60;;;;;;6249516;28;20072;-78
2021/04/15 12:38:13;;;;;;;3.92;2.40;;;13.10;36.90;;;;;;6221562;28;20080;-78
2021/04/15 12:41:16;;;;;;;5.35;2.55;;;12.50;38.00;;;;;;6207816;28;20050;-78
2021/04/15 12:44:22;;;;;;;4.93;3.42;;;12.20;39.70;;;;;;6202813;28;20546;-77
2021/04/15 12:47:25;;;;;;;4.10;2.60;;;12.10;42.10;;;;;;6200045;28;20141;-77
2021/04/15 12:50:28;;;;;;;3.90;2.33;;;12.10;42.00;;;;;;6199592;28;20054;-78
2021/04/15 12:53:32;;;;;;;4.00;2.80;;;12.80;40.20;;;;;;6199249;28;20070;-78
2021/04/15 12:56:38;;;;;;;4.00;1.75;;;13.50;38.10;;;;;;6199324;28;20046;-77
2021/04/15 12:59:44;;;;;;;3.90;1.67;;;13.30;35.30;;;;;;6198914;28;20050;-77
2021/04/15 13:02:46;;;;;;;3.78;2.45;;;13.00;36.30;;;;;;6199632;28;20133;-77
2021/04/15 13:06:10;;;;;;;1.90;1.70;;;12.40;36.40;;;;;;6198423;28;20133;-77
2021/04/15 13:09:24;;;;;;;3.45;2.72;;;12.80;37.00;;;;;;6200657;28;20137;-79
2021/04/15 13:12:33;;;;;;;4.15;3.03;;;13.40;35.20;;;;;;6201266;28;20069;-78
2021/04/15 13:15:43;;;;;;;3.45;2.05;;;13.30;35.90;;;;;;6225186;28;20442;-78
2021/04/15 13:18:45;;;;;;;3.45;2.28;;;13.40;34.80;;;;;;6226567;28;20132;-78
2021/04/15 13:21:59;;;;;;;3.08;2.22;;;13.60;37.00;;;;;;6225301;28;20504;-78
2021/04/15 13:25:13;;;;;;;5.18;2.10;;;13.50;38.80;;;;;;6224428;28;20136;-79
2021/04/15 13:28:15;;;;;;;2.75;2.55;;;13.30;38.30;;;;;;6226212;28;20077;-78
2021/04/15 13:31:35;;;;;;;4.03;2.42;;;12.60;38.90;;;;;;6225632;28;20136;-79
2021/04/15 13:35:02;;;;;;;2.10;1.90;;;11.60;41.40;;;;;;6224513;28;20120;-78
2021/04/15 13:38:39;;;;;;;3.38;3.08;;;10.80;44.20;;;;;;6224903;28;20057;-78
2021/04/15 13:41:56;;;;;;;13.00;4.15;;;10.40;48.00;;;;;;6223539;28;20038;-78
2021/04/15 13:45:06;;;;;;;4.00;3.65;;;10.10;49.80;;;;;;6226747;28;20042;-79
2021/04/15 13:48:09;;;;;;;5.10;3.70;;;9.80;51.10;;;;;;6225463;28;20440;-79
2021/04/15 13:51:19;;;;;;;3.85;3.55;;;9.60;52.50;;;;;;6229306;28;20107;-79
2021/04/15 13:54:31;;;;;;;5.10;2.92;;;9.50;52.60;;;;;;6227440;28;20053;-79
2021/04/15 13:57:44;;;;;;;3.83;3.15;;;9.40;53.90;;;;;;6226549;28;20049;-78
2021/04/15 14:00:48;;;;;;;7.65;5.70;;;9.50;53.30;;;;;;6222950;28;20512;-77
2021/04/15 14:03:50;;;;;;;3.63;3.33;;;9.70;53.50;;;;;;6223106;28;20117;-77
2021/04/15 14:06:52;;;;;;;8.45;2.95;;;10.10;52.10;;;;;;6222284;28;20144;-77
2021/04/15 14:09:55;;;;;;;5.15;3.65;;;10.70;49.70;;;;;;6222269;28;20474;-77
2021/04/15 14:12:59;;;;;;;8.48;7.75;;;11.20;47.10;;;;;;6222994;28;20140;-78
2021/04/15 14:16:04;;;;;;;3.00;2.63;;;11.70;45.20;;;;;;6226180;28;20573;-78
2021/04/15 14:19:14;;;;;;;2.70;2.42;;;12.30;43.30;;;;;;6227784;28;20056;-77
2021/04/15 14:22:20;;;;;;;2.85;2.13;;;12.80;42.80;;;;;;6227435;28;20049;-78
2021/04/15 14:25:28;;;;;;;1.90;1.80;;;13.40;41.20;;;;;;6256450;22;20136;-77
2021/04/15 14:28:31;;;;;;;2.23;2.03;;;13.80;39.00;;;;;;6275287;28;20049;-78
2021/04/15 14:31:34;;;;;;;2.45;1.90;;;14.00;38.40;;;;;;6274183;28;20383;-78
2021/04/15 14:34:37;;;;;;;3.05;2.15;;;14.00;39.20;;;;;;6275302;28;20057;-77
2021/04/15 14:37:40;;;;;;;2.30;2.10;;;13.60;39.40;;;;;;6275683;28;20514;-77
2021/04/15 14:40:42;;;;;;;2.90;2.67;;;12.90;40.10;;;;;;6274676;28;20051;-78
2021/04/15 14:43:44;;;;;;;2.75;2.55;;;12.60;41.30;;;;;;6259765;28;20227;-78
2021/04/15 14:46:46;;;;;;;4.20;2.50;;;12.10;40.30;;;;;;6251619;28;20065;-77
2021/04/15 14:49:59;;;;;;;5.40;2.42;;;11.50;41.10;;;;;;6249440;28;20434;-78
2021/04/15 14:53:13;;;;;;;4.10;2.60;;;11.40;42.80;;;;;;6251388;28;20045;-77
2021/04/15 14:56:18;;;;;;;6.70;2.03;;;11.60;42.50;;;;;;6250049;28;20131;-78
2021/04/15 14:59:23;;;;;;;2.40;1.83;;;12.00;41.00;;;;;;6249194;28;20045;-77
2021/04/15 15:02:26;;;;;;;7.38;3.22;;;12.40;39.80;;;;;;6252337;28;20054;-78
2021/04/15 15:05:32;;;;;;;3.15;2.58;;;12.60;39.10;;;;;;6251971;28;20045;-78
2021/04/15 15:08:36;;;;;;;4.50;2.60;;;12.60;38.60;;;;;;6255802;28;20112;-78
2021/04/15 15:11:38;;;;;;;2.40;2.17;;;12.60;39.50;;;;;;6256657;28;20503;-78
2021/04/15 15:14:45;;;;;;;3.60;2.40;;;12.30;43.20;;;;;;6271851;28;20056;-78
2021/04/15 15:17:47;;;;;;;6.32;3.67;;;11.80;44.00;;;;;;6277715;28;20051;-77
2021/04/15 15:20:50;;;;;;;33.28;30.60;;;11.30;49.40;;;;;;6276825;28;20113;-78
2021/04/15 15:24:08;;;;;;;10.20;8.95;;;10.80;48.20;;;;;;6277277;28;20040;-78
2021/04/15 15:27:17;;;;;;;5.43;4.50;;;10.40;48.40;;;;;;6278618;28;20080;-78
2021/04/15 15:30:31;;;;;;;3.45;2.80;;;10.20;48.70;;;;;;6276829;28;20081;-78
2021/04/15 15:33:35;;;;;;;3.90;2.58;;;10.10;48.30;;;;;;6276899;28;20057;-78
2021/04/15 15:36:37;;;;;;;3.88;2.83;;;10.00;48.40;;;;;;6276116;28;20560;-78
2021/04/15 15:39:40;;;;;;;3.17;2.78;;;9.90;48.40;;;;;;6276431;28;20064;-78
2021/04/15 15:43:05;;;;;;;5.25;2.53;;;10.00;47.90;;;;;;6277246;28;20041;-78
2021/04/15 15:46:34;;;;;;;5.18;2.42;;;10.00;47.60;;;;;;6272184;28;20455;-80
2021/04/15 15:49:36;;;;;;;4.97;3.00;;;9.90;47.00;;;;;;6277274;28;20458;-78
2021/04/15 15:52:38;;;;;;;2.30;2.05;;;9.70;46.20;;;;;;6276931;28;20041;-78
2021/04/15 15:55:40;;;;;;;4.85;2.22;;;9.60;46.30;;;;;;6274765;28;20045;-77
2021/04/15 15:58:42;;;;;;;4.75;2.20;;;9.60;46.50;;;;;;6273812;28;20142;-77
2021/04/15 16:01:57;;;;;;;6.47;2.58;;;9.60;46.60;;;;;;6273018;28;20079;-78
2021/04/15 16:05:00;;;;;;;2.35;2.17;;;9.60;45.50;;;;;;6272576;28;20098;-77
2021/04/15 16:08:11;;;;;;;2.83;2.20;;;9.50;45.20;;;;;;6272484;28;20187;-78
2021/04/15 16:11:40;;;;;;;4.38;2.25;;;9.60;43.90;;;;;;6273185;28;20103;-77
2021/04/15 16:14:42;;;;;;;2.83;2.63;;;9.60;44.70;;;;;;6272650;28;20138;-78
2021/04/15 16:17:44;;;;;;;1.77;1.67;;;9.70;43.60;;;;;;6271736;28;20053;-77
2021/04/15 16:20:53;;;;;;;2.58;2.25;;;9.80;42.80;;;;;;6271479;28;20154;-78
2021/04/15 16:24:21;;;;;;;3.78;2.88;;;9.80;43.00;;;;;;6271574;28;20068;-77
2021/04/15 16:27:23;;;;;;;4.97;2.30;;;9.70;43.40;;;;;;6272158;28;20080;-77
2021/04/15 16:30:28;;;;;;;3.38;2.33;;;9.70;43.60;;;;;;6271688;28;20490;-78
2021/04/15 16:33:30;;;;;;;3.40;2.90;;;9.60;43.20;;;;;;6272553;28;20450;-77
2021/04/15 16:36:32;;;;;;;2.47;2.05;;;9.50;43.80;;;;;;6275018;28;20135;-78